sensor_id;sensor_type;location;lat;lon;timestamp;pressure;altitude;pressure_sealevel;temperature;humidity
3294;BME280;1659;51.470;6.770;2023-03-12T00:01:13;101111.88;;;2.57;68.68
3294;BME280;1659;51.470;6.770;2023-03-12T00:03:40;101123.22;;;2.57;68.30
3294;BME280;1659;51.470;6.770;2023-03-12T00:06:06;101118.81;;;2.56;68.26
3294;BME280;1659;51.470;6.770;2023-03-12T00:08:33;101117.97;;;2.56;68.96
3294;BME280;1659;51.470;6.770;2023-03-12T00:11:04;101127.53;;;2.57;69.19
3294;BME280;1659;51.470;6.770;2023-03-12T00:13:31;101112.75;;;2.56;68.52
3294;BME280;1659;51.470;6.770;2023-03-12T00:16:04;101108.34;;;2.55;68.66
3294;BME280;1659;51.470;6.770;2023-03-12T00:18:30;101098.81;;;2.55;68.96
3294;BME280;1659;51.470;6.770;2023-03-12T00:20:57;101106.66;;;2.57;68.20
3294;BME280;1659;51.470;6.770;2023-03-12T00:23:23;101104.03;;;2.57;68.41
3294;BME280;1659;51.470;6.770;2023-03-12T00:25:50;101102.31;;;2.56;67.84
3294;BME280;1659;51.470;6.770;2023-03-12T00:28:17;101101.47;;;2.58;68.00
3294;BME280;1659;51.470;6.770;2023-03-12T00:30:43;101100.63;;;2.59;67.71
3294;BME280;1659;51.470;6.770;2023-03-12T00:33:11;101098.91;;;2.60;68.11
3294;BME280;1659;51.470;6.770;2023-03-12T00:35:38;101102.38;;;2.59;67.93
3294;BME280;1659;51.470;6.770;2023-03-12T00:38:04;101095.41;;;2.59;67.77
3294;BME280;1659;51.470;6.770;2023-03-12T00:40:31;101085.84;;;2.60;67.68
3294;BME280;1659;51.470;6.770;2023-03-12T00:42:57;101089.34;;;2.60;66.68
3294;BME280;1659;51.470;6.770;2023-03-12T00:45:24;101085.88;;;2.61;66.95
3294;BME280;1659;51.470;6.770;2023-03-12T00:47:50;101074.56;;;2.61;66.75
3294;BME280;1659;51.470;6.770;2023-03-12T00:50:18;101069.34;;;2.61;66.99
3294;BME280;1659;51.470;6.770;2023-03-12T00:52:45;101066.78;;;2.62;66.62
3294;BME280;1659;51.470;6.770;2023-03-12T00:55:11;101067.63;;;2.61;66.91
3294;BME280;1659;51.470;6.770;2023-03-12T00:57:38;101071.13;;;2.63;66.94
3294;BME280;1659;51.470;6.770;2023-03-12T01:00:06;101064.19;;;2.64;67.02
3294;BME280;1659;51.470;6.770;2023-03-12T01:02:34;101056.38;;;2.65;66.71
3294;BME280;1659;51.470;6.770;2023-03-12T01:05:01;101060.72;;;2.65;66.21
3294;BME280;1659;51.470;6.770;2023-03-12T01:07:29;101058.13;;;2.65;66.16
3294;BME280;1659;51.470;6.770;2023-03-12T01:09:56;101050.28;;;2.65;65.44
3294;BME280;1659;51.470;6.770;2023-03-12T01:12:22;101047.69;;;2.65;65.74
3294;BME280;1659;51.470;6.770;2023-03-12T01:14:49;101057.25;;;2.64;66.36
3294;BME280;1659;51.470;6.770;2023-03-12T01:17:15;101041.63;;;2.66;66.22
3294;BME280;1659;51.470;6.770;2023-03-12T01:19:42;101044.25;;;2.68;66.23
3294;BME280;1659;51.470;6.770;2023-03-12T01:22:08;101038.16;;;2.69;65.83
3294;BME280;1659;51.470;6.770;2023-03-12T01:24:36;101032.97;;;2.70;66.08
3294;BME280;1659;51.470;6.770;2023-03-12T01:27:03;101029.53;;;2.71;66.16
3294;BME280;1659;51.470;6.770;2023-03-12T01:29:30;101034.75;;;2.71;66.04
3294;BME280;1659;51.470;6.770;2023-03-12T01:31:56;101030.41;;;2.72;65.69
3294;BME280;1659;51.470;6.770;2023-03-12T01:34:23;101028.66;;;2.72;66.14
3294;BME280;1659;51.470;6.770;2023-03-12T01:36:49;101028.69;;;2.74;66.31
3294;BME280;1659;51.470;6.770;2023-03-12T01:39:16;101026.13;;;2.75;66.03
3294;BME280;1659;51.470;6.770;2023-03-12T01:41:44;101019.13;;;2.74;65.85
3294;BME280;1659;51.470;6.770;2023-03-12T01:44:13;101009.63;;;2.76;66.09
3294;BME280;1659;51.470;6.770;2023-03-12T01:46:40;101013.09;;;2.77;65.88
3294;BME280;1659;51.470;6.770;2023-03-12T01:49:09;101007.91;;;2.78;66.27
3294;BME280;1659;51.470;6.770;2023-03-12T01:51:39;101015.78;;;2.80;65.86
3294;BME280;1659;51.470;6.770;2023-03-12T01:54:11;101014.88;;;2.79;66.05
3294;BME280;1659;51.470;6.770;2023-03-12T01:56:40;101019.28;;;2.82;66.05
3294;BME280;1659;51.470;6.770;2023-03-12T01:59:13;101015.81;;;2.81;66.25
3294;BME280;1659;51.470;6.770;2023-03-12T02:01:41;101018.41;;;2.81;65.53
3294;BME280;1659;51.470;6.770;2023-03-12T02:04:09;101017.53;;;2.82;66.05
3294;BME280;1659;51.470;6.770;2023-03-12T02:06:40;101002.78;;;2.84;65.71
3294;BME280;1659;51.470;6.770;2023-03-12T02:09:09;100999.28;;;2.84;65.87
3294;BME280;1659;51.470;6.770;2023-03-12T02:11:36;100993.25;;;2.85;65.61
3294;BME280;1659;51.470;6.770;2023-03-12T02:14:03;100986.25;;;2.84;65.31
3294;BME280;1659;51.470;6.770;2023-03-12T02:16:31;100984.47;;;2.83;65.02
3294;BME280;1659;51.470;6.770;2023-03-12T02:18:59;100974.94;;;2.83;65.37
3294;BME280;1659;51.470;6.770;2023-03-12T02:21:28;100974.91;;;2.82;65.36
3294;BME280;1659;51.470;6.770;2023-03-12T02:24:02;100977.53;;;2.82;65.82
3294;BME280;1659;51.470;6.770;2023-03-12T02:26:34;100974.03;;;2.81;65.67
3294;BME280;1659;51.470;6.770;2023-03-12T02:29:02;100984.47;;;2.81;65.92
3294;BME280;1659;51.470;6.770;2023-03-12T02:31:34;100982.72;;;2.80;66.08
3294;BME280;1659;51.470;6.770;2023-03-12T02:34:03;100994.03;;;2.82;65.82
3294;BME280;1659;51.470;6.770;2023-03-12T02:36:29;100987.09;;;2.81;65.98
3294;BME280;1659;51.470;6.770;2023-03-12T02:38:56;100983.59;;;2.82;66.12
3294;BME280;1659;51.470;6.770;2023-03-12T02:41:26;100974.91;;;2.82;65.08
3294;BME280;1659;51.470;6.770;2023-03-12T02:44:00;100980.13;;;2.82;65.21
3294;BME280;1659;51.470;6.770;2023-03-12T02:46:29;100969.69;;;2.82;65.26
3294;BME280;1659;51.470;6.770;2023-03-12T02:48:58;100964.47;;;2.82;65.64
3294;BME280;1659;51.470;6.770;2023-03-12T02:51:25;100966.22;;;2.81;65.82
3294;BME280;1659;51.470;6.770;2023-03-12T02:53:51;100947.94;;;2.81;65.67
3294;BME280;1659;51.470;6.770;2023-03-12T02:56:20;100957.47;;;2.81;65.67
3294;BME280;1659;51.470;6.770;2023-03-12T02:58:47;100953.13;;;2.80;65.56
3294;BME280;1659;51.470;6.770;2023-03-12T03:01:15;100948.78;;;2.80;65.35
3294;BME280;1659;51.470;6.770;2023-03-12T03:03:42;100942.69;;;2.80;65.45
3294;BME280;1659;51.470;6.770;2023-03-12T03:06:08;100942.66;;;2.78;65.58
3294;BME280;1659;51.470;6.770;2023-03-12T03:08:35;100946.13;;;2.77;64.99
3294;BME280;1659;51.470;6.770;2023-03-12T03:11:01;100951.34;;;2.77;65.46
3294;BME280;1659;51.470;6.770;2023-03-12T03:13:28;100940.88;;;2.76;65.58
3294;BME280;1659;51.470;6.770;2023-03-12T03:15:55;100939.16;;;2.76;65.71
3294;BME280;1659;51.470;6.770;2023-03-12T03:18:25;100937.38;;;2.75;65.94
3294;BME280;1659;51.470;6.770;2023-03-12T03:20:55;100934.78;;;2.75;65.57
3294;BME280;1659;51.470;6.770;2023-03-12T03:23:21;100935.63;;;2.74;65.74
3294;BME280;1659;51.470;6.770;2023-03-12T03:25:48;100938.22;;;2.74;65.33
3294;BME280;1659;51.470;6.770;2023-03-12T03:28:17;100938.22;;;2.74;65.63
3294;BME280;1659;51.470;6.770;2023-03-12T03:30:43;100933.88;;;2.73;65.80
3294;BME280;1659;51.470;6.770;2023-03-12T03:33:10;100933.00;;;2.74;65.65
3294;BME280;1659;51.470;6.770;2023-03-12T03:35:38;100932.19;;;2.75;66.07
3294;BME280;1659;51.470;6.770;2023-03-12T03:38:04;100926.94;;;2.75;65.93
3294;BME280;1659;51.470;6.770;2023-03-12T03:40:31;100923.50;;;2.76;65.97
3294;BME280;1659;51.470;6.770;2023-03-12T03:42:58;100923.50;;;2.76;66.23
3294;BME280;1659;51.470;6.770;2023-03-12T03:45:24;100920.03;;;2.77;65.86
3294;BME280;1659;51.470;6.770;2023-03-12T03:47:51;100922.66;;;2.79;66.13
3294;BME280;1659;51.470;6.770;2023-03-12T03:50:18;100920.06;;;2.80;66.29
3294;BME280;1659;51.470;6.770;2023-03-12T03:52:46;100917.50;;;2.82;66.23
3294;BME280;1659;51.470;6.770;2023-03-12T03:55:13;100920.13;;;2.83;65.55
3294;BME280;1659;51.470;6.770;2023-03-12T03:57:39;100917.53;;;2.85;65.83
3294;BME280;1659;51.470;6.770;2023-03-12T04:00:07;100927.16;;;2.88;65.61
3294;BME280;1659;51.470;6.770;2023-03-12T04:02:37;100919.31;;;2.88;65.48
3294;BME280;1659;51.470;6.770;2023-03-12T04:05:05;100929.75;;;2.88;65.61
3294;BME280;1659;51.470;6.770;2023-03-12T04:07:31;100928.91;;;2.89;65.53
3294;BME280;1659;51.470;6.770;2023-03-12T04:09:59;100911.50;;;2.89;65.55
3294;BME280;1659;51.470;6.770;2023-03-12T04:12:26;100918.50;;;2.92;65.33
3294;BME280;1659;51.470;6.770;2023-03-12T04:14:52;100925.47;;;2.93;65.71
3294;BME280;1659;51.470;6.770;2023-03-12T04:17:19;100912.47;;;2.94;65.96
3294;BME280;1659;51.470;6.770;2023-03-12T04:19:46;100914.22;;;2.97;65.34
3294;BME280;1659;51.470;6.770;2023-03-12T04:22:12;100909.91;;;2.97;65.51
3294;BME280;1659;51.470;6.770;2023-03-12T04:24:39;100909.94;;;2.99;65.67
3294;BME280;1659;51.470;6.770;2023-03-12T04:27:07;100908.22;;;3.02;65.70
3294;BME280;1659;51.470;6.770;2023-03-12T04:29:33;100914.31;;;3.01;65.51
3294;BME280;1659;51.470;6.770;2023-03-12T04:32:00;100903.88;;;3.03;65.42
3294;BME280;1659;51.470;6.770;2023-03-12T04:34:26;100894.31;;;3.03;65.45
3294;BME280;1659;51.470;6.770;2023-03-12T04:36:53;100892.59;;;3.04;65.41
3294;BME280;1659;51.470;6.770;2023-03-12T04:39:19;100884.75;;;3.04;64.73
3294;BME280;1659;51.470;6.770;2023-03-12T04:41:46;100889.97;;;3.04;64.70
3294;BME280;1659;51.470;6.770;2023-03-12T04:44:14;100890.88;;;3.06;65.15
3294;BME280;1659;51.470;6.770;2023-03-12T04:46:41;100895.22;;;3.07;65.73
3294;BME280;1659;51.470;6.770;2023-03-12T04:49:08;100876.13;;;3.10;65.46
3294;BME280;1659;51.470;6.770;2023-03-12T04:51:35;100871.78;;;3.10;65.74
3294;BME280;1659;51.470;6.770;2023-03-12T04:54:02;100874.41;;;3.12;66.03
3294;BME280;1659;51.470;6.770;2023-03-12T04:56:28;100872.69;;;3.14;65.85
3294;BME280;1659;51.470;6.770;2023-03-12T04:58:55;100865.72;;;3.14;65.38
3294;BME280;1659;51.470;6.770;2023-03-12T05:01:25;100865.75;;;3.16;65.12
3294;BME280;1659;51.470;6.770;2023-03-12T05:03:53;100850.09;;;3.17;65.01
3294;BME280;1659;51.470;6.770;2023-03-12T05:06:19;100847.50;;;3.17;65.10
3294;BME280;1659;51.470;6.770;2023-03-12T05:08:47;100838.78;;;3.17;65.05
3294;BME280;1659;51.470;6.770;2023-03-12T05:11:14;100850.97;;;3.18;65.34
3294;BME280;1659;51.470;6.770;2023-03-12T05:13:41;100851.00;;;3.19;65.13
3294;BME280;1659;51.470;6.770;2023-03-12T05:16:08;100850.13;;;3.19;64.92
3294;BME280;1659;51.470;6.770;2023-03-12T05:18:37;100841.44;;;3.18;64.73
3294;BME280;1659;51.470;6.770;2023-03-12T05:21:04;100839.72;;;3.20;65.39
3294;BME280;1659;51.470;6.770;2023-03-12T05:23:32;100830.13;;;3.21;64.88
3294;BME280;1659;51.470;6.770;2023-03-12T05:25:58;100828.41;;;3.21;64.90
3294;BME280;1659;51.470;6.770;2023-03-12T05:28:25;100824.06;;;3.22;64.78
3294;BME280;1659;51.470;6.770;2023-03-12T05:30:53;100824.03;;;3.20;65.18
3294;BME280;1659;51.470;6.770;2023-03-12T05:33:20;100828.41;;;3.21;65.06
3294;BME280;1659;51.470;6.770;2023-03-12T05:35:48;100836.25;;;3.21;65.35
3294;BME280;1659;51.470;6.770;2023-03-12T05:38:14;100832.75;;;3.21;65.35
3294;BME280;1659;51.470;6.770;2023-03-12T05:40:41;100820.56;;;3.20;65.39
3294;BME280;1659;51.470;6.770;2023-03-12T05:43:07;100822.25;;;3.18;65.52
3294;BME280;1659;51.470;6.770;2023-03-12T05:45:34;100821.41;;;3.19;65.96
3294;BME280;1659;51.470;6.770;2023-03-12T05:48:01;100815.28;;;3.17;66.15
3294;BME280;1659;51.470;6.770;2023-03-12T05:50:27;100799.63;;;3.17;65.97
3294;BME280;1659;51.470;6.770;2023-03-12T05:52:55;100794.38;;;3.15;66.66
3294;BME280;1659;51.470;6.770;2023-03-12T05:55:22;100782.16;;;3.14;66.80
3294;BME280;1659;51.470;6.770;2023-03-12T05:57:48;100776.06;;;3.12;66.96
3294;BME280;1659;51.470;6.770;2023-03-12T06:00:15;100766.47;;;3.10;67.42
3294;BME280;1659;51.470;6.770;2023-03-12T06:02:42;100761.22;;;3.08;67.70
3294;BME280;1659;51.470;6.770;2023-03-12T06:05:09;100755.13;;;3.06;67.78
3294;BME280;1659;51.470;6.770;2023-03-12T06:07:36;100768.97;;;3.02;67.85
3294;BME280;1659;51.470;6.770;2023-03-12T06:10:05;100768.97;;;2.99;68.38
3294;BME280;1659;51.470;6.770;2023-03-12T06:12:32;100769.81;;;2.98;68.73
3294;BME280;1659;51.470;6.770;2023-03-12T06:14:58;100766.34;;;2.99;68.68
3294;BME280;1659;51.470;6.770;2023-03-12T06:17:25;100760.25;;;3.00;69.32
3294;BME280;1659;51.470;6.770;2023-03-12T06:19:51;100764.59;;;2.99;69.47
3294;BME280;1659;51.470;6.770;2023-03-12T06:22:18;100768.97;;;2.99;69.13
3294;BME280;1659;51.470;6.770;2023-03-12T06:24:46;100775.06;;;2.99;69.85
3294;BME280;1659;51.470;6.770;2023-03-12T06:27:14;100779.41;;;2.99;69.69
3294;BME280;1659;51.470;6.770;2023-03-12T06:29:41;100770.69;;;3.00;70.19
3294;BME280;1659;51.470;6.770;2023-03-12T06:32:08;100777.69;;;3.01;70.11
3294;BME280;1659;51.470;6.770;2023-03-12T06:34:34;100783.78;;;3.01;70.50
3294;BME280;1659;51.470;6.770;2023-03-12T06:37:01;100772.47;;;3.01;70.41
3294;BME280;1659;51.470;6.770;2023-03-12T06:39:27;100771.59;;;3.02;70.93
3294;BME280;1659;51.470;6.770;2023-03-12T06:41:54;100764.66;;;3.02;70.91
3294;BME280;1659;51.470;6.770;2023-03-12T06:44:22;100764.66;;;3.02;71.33
3294;BME280;1659;51.470;6.770;2023-03-12T06:46:49;100756.81;;;3.02;71.80
3294;BME280;1659;51.470;6.770;2023-03-12T06:49:16;100755.06;;;3.01;71.27
3294;BME280;1659;51.470;6.770;2023-03-12T06:51:43;100760.28;;;3.01;72.20
3294;BME280;1659;51.470;6.770;2023-03-12T06:54:09;100773.34;;;3.03;72.04
3294;BME280;1659;51.470;6.770;2023-03-12T06:56:36;100766.38;;;3.03;72.42
3294;BME280;1659;51.470;6.770;2023-03-12T06:59:03;100762.88;;;3.01;72.93
3294;BME280;1659;51.470;6.770;2023-03-12T07:01:31;100766.34;;;2.99;72.71
3294;BME280;1659;51.470;6.770;2023-03-12T07:03:58;100759.34;;;2.96;73.65
3294;BME280;1659;51.470;6.770;2023-03-12T07:06:24;100754.06;;;2.93;73.85
3294;BME280;1659;51.470;6.770;2023-03-12T07:08:52;100760.16;;;2.91;74.44
3294;BME280;1659;51.470;6.770;2023-03-12T07:11:19;100763.59;;;2.90;75.08
3294;BME280;1659;51.470;6.770;2023-03-12T07:13:46;100766.19;;;2.88;75.31
3294;BME280;1659;51.470;6.770;2023-03-12T07:16:12;100752.28;;;2.88;75.49
3294;BME280;1659;51.470;6.770;2023-03-12T07:18:40;100752.25;;;2.86;76.34
3294;BME280;1659;51.470;6.770;2023-03-12T07:21:07;100753.94;;;2.82;76.86
3294;BME280;1659;51.470;6.770;2023-03-12T07:23:34;100751.31;;;2.81;76.97
3294;BME280;1659;51.470;6.770;2023-03-12T07:26:02;100753.94;;;2.81;77.75
3294;BME280;1659;51.470;6.770;2023-03-12T07:28:29;100753.09;;;2.82;78.12
3294;BME280;1659;51.470;6.770;2023-03-12T07:30:59;100748.72;;;2.82;78.20
3294;BME280;1659;51.470;6.770;2023-03-12T07:33:26;100752.22;;;2.84;78.82
3294;BME280;1659;51.470;6.770;2023-03-12T07:35:54;100753.16;;;2.87;78.90
3294;BME280;1659;51.470;6.770;2023-03-12T07:38:20;100747.91;;;2.88;79.04
3294;BME280;1659;51.470;6.770;2023-03-12T07:40:49;100734.91;;;2.91;79.44
3294;BME280;1659;51.470;6.770;2023-03-12T07:43:16;100735.81;;;2.95;79.06
3294;BME280;1659;51.470;6.770;2023-03-12T07:45:43;100739.31;;;2.97;79.49
3294;BME280;1659;51.470;6.770;2023-03-12T07:48:10;100735.03;;;3.00;79.68
3294;BME280;1659;51.470;6.770;2023-03-12T07:50:37;100736.81;;;3.05;79.90
3294;BME280;1659;51.470;6.770;2023-03-12T07:53:05;100724.69;;;3.08;79.57
3294;BME280;1659;51.470;6.770;2023-03-12T07:55:32;100720.38;;;3.12;79.87
3294;BME280;1659;51.470;6.770;2023-03-12T07:57:59;100727.34;;;3.13;79.87
3294;BME280;1659;51.470;6.770;2023-03-12T08:00:27;100729.09;;;3.15;79.96
3294;BME280;1659;51.470;6.770;2023-03-12T08:02:53;100714.31;;;3.17;80.50
3294;BME280;1659;51.470;6.770;2023-03-12T08:05:20;100723.06;;;3.21;80.73
3294;BME280;1659;51.470;6.770;2023-03-12T08:07:49;100722.25;;;3.24;80.67
3294;BME280;1659;51.470;6.770;2023-03-12T08:10:18;100723.97;;;3.25;80.59
3294;BME280;1659;51.470;6.770;2023-03-12T08:12:45;100730.97;;;3.27;80.79
3294;BME280;1659;51.470;6.770;2023-03-12T08:15:11;100730.97;;;3.26;81.03
3294;BME280;1659;51.470;6.770;2023-03-12T08:17:38;100724.88;;;3.28;81.21
3294;BME280;1659;51.470;6.770;2023-03-12T08:20:06;100725.78;;;3.30;81.16
3294;BME280;1659;51.470;6.770;2023-03-12T08:22:34;100737.13;;;3.32;81.22
3294;BME280;1659;51.470;6.770;2023-03-12T08:25:01;100714.53;;;3.36;81.59
3294;BME280;1659;51.470;6.770;2023-03-12T08:27:29;100717.19;;;3.42;81.61
3294;BME280;1659;51.470;6.770;2023-03-12T08:29:56;100709.44;;;3.53;81.72
3294;BME280;1659;51.470;6.770;2023-03-12T08:32:23;100708.63;;;3.57;81.61
3294;BME280;1659;51.470;6.770;2023-03-12T08:34:49;100717.38;;;3.61;81.93
3294;BME280;1659;51.470;6.770;2023-03-12T08:37:16;100716.50;;;3.62;82.09
3294;BME280;1659;51.470;6.770;2023-03-12T08:39:43;100708.66;;;3.62;82.58
3294;BME280;1659;51.470;6.770;2023-03-12T08:42:09;100708.69;;;3.66;82.63
3294;BME280;1659;51.470;6.770;2023-03-12T08:44:37;100710.47;;;3.72;82.79
3294;BME280;1659;51.470;6.770;2023-03-12T08:47:04;100702.66;;;3.73;83.05
3294;BME280;1659;51.470;6.770;2023-03-12T08:49:30;100694.84;;;3.75;83.31
3294;BME280;1659;51.470;6.770;2023-03-12T08:51:57;100693.13;;;3.78;83.30
3294;BME280;1659;51.470;6.770;2023-03-12T08:54:23;100697.50;;;3.83;83.65
3294;BME280;1659;51.470;6.770;2023-03-12T08:56:50;100693.19;;;3.86;83.99
3294;BME280;1659;51.470;6.770;2023-03-12T08:59:17;100699.31;;;3.88;83.89
3294;BME280;1659;51.470;6.770;2023-03-12T09:01:46;100706.28;;;3.91;84.16
3294;BME280;1659;51.470;6.770;2023-03-12T09:04:12;100691.47;;;3.91;84.67
3294;BME280;1659;51.470;6.770;2023-03-12T09:06:39;100698.44;;;3.92;85.11
3294;BME280;1659;51.470;6.770;2023-03-12T09:09:06;100703.66;;;3.89;85.42
3294;BME280;1659;51.470;6.770;2023-03-12T09:11:34;100706.28;;;3.91;85.66
3294;BME280;1659;51.470;6.770;2023-03-12T09:14:01;100695.81;;;3.89;86.30
3294;BME280;1659;51.470;6.770;2023-03-12T09:16:28;100694.91;;;3.86;86.65
3294;BME280;1659;51.470;6.770;2023-03-12T09:18:56;100693.16;;;3.83;87.26
3294;BME280;1659;51.470;6.770;2023-03-12T09:21:23;100694.91;;;3.84;87.75
3294;BME280;1659;51.470;6.770;2023-03-12T09:23:49;100689.66;;;3.84;88.29
3294;BME280;1659;51.470;6.770;2023-03-12T09:26:16;100694.91;;;3.84;88.76
3294;BME280;1659;51.470;6.770;2023-03-12T09:28:42;100710.56;;;3.84;89.18
3294;BME280;1659;51.470;6.770;2023-03-12T09:31:09;100702.72;;;3.78;89.98
3294;BME280;1659;51.470;6.770;2023-03-12T09:33:36;100717.50;;;3.76;90.50
3294;BME280;1659;51.470;6.770;2023-03-12T09:36:05;100711.38;;;3.75;90.54
3294;BME280;1659;51.470;6.770;2023-03-12T09:38:31;100711.44;;;3.82;90.96
3294;BME280;1659;51.470;6.770;2023-03-12T09:41:00;100722.84;;;3.88;90.90
3294;BME280;1659;51.470;6.770;2023-03-12T09:43:33;100715.88;;;3.90;90.92
3294;BME280;1659;51.470;6.770;2023-03-12T09:46:02;100716.72;;;3.89;91.13
3294;BME280;1659;51.470;6.770;2023-03-12T09:48:32;100720.22;;;3.90;91.69
3294;BME280;1659;51.470;6.770;2023-03-12T09:51:00;100715.00;;;3.88;91.74
3294;BME280;1659;51.470;6.770;2023-03-12T09:53:32;100723.69;;;3.89;92.13
3294;BME280;1659;51.470;6.770;2023-03-12T09:56:02;100729.78;;;3.88;92.69
3294;BME280;1659;51.470;6.770;2023-03-12T09:58:34;100720.22;;;3.93;92.80
3294;BME280;1659;51.470;6.770;2023-03-12T10:01:07;100729.00;;;3.98;92.83
3294;BME280;1659;51.470;6.770;2023-03-12T10:03:48;100721.16;;;4.01;92.82
3294;BME280;1659;51.470;6.770;2023-03-12T10:06:20;100716.00;;;4.06;92.92
3294;BME280;1659;51.470;6.770;2023-03-12T10:09:00;100715.16;;;4.11;93.32
3294;BME280;1659;51.470;6.770;2023-03-12T10:11:37;100716.94;;;4.19;93.46
3294;BME280;1659;51.470;6.770;2023-03-12T10:14:16;100715.25;;;4.25;93.57
3294;BME280;1659;51.470;6.770;2023-03-12T10:16:55;100719.59;;;4.26;94.22
3294;BME280;1659;51.470;6.770;2023-03-12T10:19:36;100713.53;;;4.29;94.25
3294;BME280;1659;51.470;6.770;2023-03-12T10:22:15;100725.75;;;4.34;94.44
3294;BME280;1659;51.470;6.770;2023-03-12T10:24:54;100724.06;;;4.41;94.63
3294;BME280;1659;51.470;6.770;2023-03-12T10:27:25;100725.84;;;4.48;94.95
3294;BME280;1659;51.470;6.770;2023-03-12T10:29:54;100724.13;;;4.53;95.38
3294;BME280;1659;51.470;6.770;2023-03-12T10:32:26;100730.28;;;4.63;95.24
3294;BME280;1659;51.470;6.770;2023-03-12T10:34:58;100725.09;;;4.72;95.61
3294;BME280;1659;51.470;6.770;2023-03-12T10:37:28;100724.25;;;4.81;95.74
3294;BME280;1659;51.470;6.770;2023-03-12T10:39:58;100728.63;;;4.87;96.04
3294;BME280;1659;51.470;6.770;2023-03-12T10:42:28;100723.44;;;4.93;96.61
3294;BME280;1659;51.470;6.770;2023-03-12T10:44:58;100731.31;;;5.01;96.41
3294;BME280;1659;51.470;6.770;2023-03-12T10:47:32;100728.72;;;5.11;96.23
3294;BME280;1659;51.470;6.770;2023-03-12T10:50:15;100729.63;;;5.21;96.67
3294;BME280;1659;51.470;6.770;2023-03-12T10:52:46;100725.28;;;5.29;97.15
3294;BME280;1659;51.470;6.770;2023-03-12T10:55:20;100745.38;;;5.35;96.79
3294;BME280;1659;51.470;6.770;2023-03-12T10:57:47;100737.50;;;5.41;96.89
3294;BME280;1659;51.470;6.770;2023-03-12T11:00:18;100738.41;;;5.48;97.28
3294;BME280;1659;51.470;6.770;2023-03-12T11:02:46;100740.16;;;5.55;97.61
3294;BME280;1659;51.470;6.770;2023-03-12T11:05:20;100740.16;;;5.66;98.21
3294;BME280;1659;51.470;6.770;2023-03-12T11:07:48;100727.09;;;5.72;98.07
3294;BME280;1659;51.470;6.770;2023-03-12T11:10:20;100720.97;;;5.79;97.96
3294;BME280;1659;51.470;6.770;2023-03-12T11:12:55;100729.72;;;5.88;98.61
3294;BME280;1659;51.470;6.770;2023-03-12T11:15:24;100726.22;;;5.95;98.65
3294;BME280;1659;51.470;6.770;2023-03-12T11:18:17;100726.22;;;6.02;98.07
3294;BME280;1659;51.470;6.770;2023-03-12T11:20:45;100721.00;;;6.10;98.76
3294;BME280;1659;51.470;6.770;2023-03-12T11:23:13;100714.84;;;6.16;98.94
3294;BME280;1659;51.470;6.770;2023-03-12T11:25:42;100716.59;;;6.24;98.98
3294;BME280;1659;51.470;6.770;2023-03-12T11:28:16;100719.19;;;6.32;99.55
3294;BME280;1659;51.470;6.770;2023-03-12T11:30:49;100709.56;;;6.40;99.50
3294;BME280;1659;51.470;6.770;2023-03-12T11:33:38;100710.41;;;6.50;99.76
3294;BME280;1659;51.470;6.770;2023-03-12T11:36:22;100711.25;;;6.60;99.64
3294;BME280;1659;51.470;6.770;2023-03-12T11:38:55;100712.97;;;6.73;99.91
3294;BME280;1659;51.470;6.770;2023-03-12T11:41:35;100703.25;;;6.85;99.85
3294;BME280;1659;51.470;6.770;2023-03-12T11:44:20;100711.09;;;6.97;99.63
3294;BME280;1659;51.470;6.770;2023-03-12T11:47:07;100721.56;;;7.05;100.00
3294;BME280;1659;51.470;6.770;2023-03-12T11:49:48;100725.91;;;7.12;100.00
3294;BME280;1659;51.470;6.770;2023-03-12T11:52:25;100720.59;;;7.18;100.00
3294;BME280;1659;51.470;6.770;2023-03-12T11:55:06;100716.19;;;7.28;100.00
3294;BME280;1659;51.470;6.770;2023-03-12T11:57:43;100720.53;;;7.30;100.00
3294;BME280;1659;51.470;6.770;2023-03-12T12:00:14;100725.78;;;7.35;100.00
3294;BME280;1659;51.470;6.770;2023-03-12T12:05:52;100714.31;;;7.44;100.00
3294;BME280;1659;51.470;6.770;2023-03-12T12:08:36;100723.06;;;7.46;100.00
3294;BME280;1659;51.470;6.770;2023-03-12T12:11:11;100716.94;;;7.47;100.00
3294;BME280;1659;51.470;6.770;2023-03-12T12:14:37;100719.50;;;7.53;100.00
3294;BME280;1659;51.470;6.770;2023-03-12T12:21:20;100707.16;;;7.69;100.00
3294;BME280;1659;51.470;6.770;2023-03-12T12:24:51;100705.34;;;7.74;100.00
3294;BME280;1659;51.470;6.770;2023-03-12T12:28:06;100703.56;;;7.78;100.00
3294;BME280;1659;51.470;6.770;2023-03-12T12:34:28;100698.22;;;7.88;100.00
3294;BME280;1659;51.470;6.770;2023-03-12T12:40:45;100678.72;;;8.09;100.00
3294;BME280;1659;51.470;6.770;2023-03-12T12:43:50;100678.59;;;8.22;100.00
3294;BME280;1659;51.470;6.770;2023-03-12T12:46:38;100665.28;;;8.34;100.00
3294;BME280;1659;51.470;6.770;2023-03-12T12:49:33;100671.31;;;8.48;100.00
3294;BME280;1659;51.470;6.770;2023-03-12T12:52:20;100659.66;;;8.68;100.00
3294;BME280;1659;51.470;6.770;2023-03-12T12:55:23;100660.88;;;9.09;100.00
3294;BME280;1659;51.470;6.770;2023-03-12T12:58:19;100661.16;;;9.47;100.00
3294;BME280;1659;51.470;6.770;2023-03-12T13:01:04;100652.78;;;9.76;100.00
3294;BME280;1659;51.470;6.770;2023-03-12T13:03:35;100639.28;;;9.94;100.00
3294;BME280;1659;51.470;6.770;2023-03-12T13:06:04;100655.72;;;10.09;100.00
3294;BME280;1659;51.470;6.770;2023-03-12T13:09:12;100656.38;;;10.20;100.00
3294;BME280;1659;51.470;6.770;2023-03-12T13:11:42;100651.69;;;10.36;100.00
3294;BME280;1659;51.470;6.770;2023-03-12T13:14:14;100639.97;;;10.51;99.86
3294;BME280;1659;51.470;6.770;2023-03-12T13:16:42;100645.06;;;10.60;99.58
3294;BME280;1659;51.470;6.770;2023-03-12T13:19:24;100635.16;;;10.70;99.45
3294;BME280;1659;51.470;6.770;2023-03-12T13:21:59;100634.97;;;10.79;99.51
3294;BME280;1659;51.470;6.770;2023-03-12T13:24:32;100628.59;;;10.88;99.11
3294;BME280;1659;51.470;6.770;2023-03-12T13:27:08;100624.09;;;10.93;98.63
3294;BME280;1659;51.470;6.770;2023-03-12T13:29:39;100630.13;;;10.98;98.54
3294;BME280;1659;51.470;6.770;2023-03-12T13:32:09;100627.44;;;11.01;98.34
3294;BME280;1659;51.470;6.770;2023-03-12T13:34:57;100622.06;;;11.04;98.01
3294;BME280;1659;51.470;6.770;2023-03-12T13:37:56;100621.09;;;11.08;97.93
3294;BME280;1659;51.470;6.770;2023-03-12T13:46:34;100612.63;;;11.30;96.91
3294;BME280;1659;51.470;6.770;2023-03-12T13:49:05;100607.03;;;11.42;96.56
3294;BME280;1659;51.470;6.770;2023-03-12T13:51:44;100598.91;;;11.51;95.73
3294;BME280;1659;51.470;6.770;2023-03-12T13:54:15;100596.97;;;11.57;94.98
3294;BME280;1659;51.470;6.770;2023-03-12T13:56:54;100596.91;;;11.60;94.29